Time;durP1;ratioP1;P1;durP2;ratioP2;P2;SDS_P1;SDS_P2;PMS_P1;PMS_P2;Temp;Humidity;BMP_temperature;BMP_pressure;BME280_temperature;BME280_humidity;BME280_pressure;Samples;Min_cycle;Max_cycle;Signal;HPM_P1;HPM_P2
2023/03/21 00:01:26;;;;;;;;;;;;;;;16.73;71.51;100819.41;7404294;19;1724;-43
2023/03/21 00:03:54;;;;;;;;;;;;;;;16.69;70.73;100803.66;7404670;19;1775;-43
2023/03/21 00:06:25;;;;;;;;;;;;;;;16.73;71.23;100819.41;7403396;19;1878;-43
2023/03/21 00:08:54;;;;;;;;;;;;;;;16.76;71.38;100819.19;7405144;19;2036;-43
2023/03/21 00:11:22;;;;;;;;;;;;;;;16.72;71.90;100812.38;7404271;19;2069;-43
2023/03/21 00:13:52;;;;;;;;;;;;;;;16.72;71.37;100809.72;7403942;19;1996;-43
2023/03/21 00:16:21;;;;;;;;;;;;;;;16.68;71.00;100817.94;7403419;19;1801;-43
2023/03/21 00:18:51;;;;;;;;;;;;;;;16.72;71.34;100825.75;7402843;19;1863;-43
2023/03/21 00:21:20;;;;;;;;;;;;;;;16.72;70.41;100823.91;7402808;19;1991;-43
2023/03/21 00:23:51;;;;;;;;;;;;;;;16.68;71.30;100817.94;7404998;19;1984;-43
2023/03/21 00:26:21;;;;;;;;;;;;;;;16.68;70.78;100822.44;7403709;19;2007;-43
2023/03/21 00:28:50;;;;;;;;;;;;;;;16.65;70.91;100820.88;7404019;19;1000;-43
2023/03/21 00:31:18;;;;;;;;;;;;;;;16.67;71.58;100805.59;7400982;19;2184;-43
2023/03/21 00:33:47;;;;;;;;;;;;;;;16.71;71.46;100822.19;7404714;19;1690;-43
2023/03/21 00:36:15;;;;;;;;;;;;;;;16.68;71.47;100817.94;7403396;19;2192;-43
2023/03/21 00:38:43;;;;;;;;;;;;;;;16.68;71.21;100825.97;7402138;19;2135;-43
2023/03/21 00:41:16;;;;;;;;;;;;;;;16.66;70.96;100808.38;7403431;19;2103;-43
2023/03/21 00:43:45;;;;;;;;;;;;;;;16.67;71.80;100815.38;7403060;19;2138;-43
2023/03/21 00:46:13;;;;;;;;;;;;;;;16.65;71.32;100791.50;7403013;19;1999;-43
2023/03/21 00:48:41;;;;;;;;;;;;;;;16.63;70.78;100795.25;7402220;19;2203;-43
2023/03/21 00:51:14;;;;;;;;;;;;;;;16.69;71.95;100803.66;7401252;19;2386;-43
2023/03/21 00:53:42;;;;;;;;;;;;;;;16.70;71.79;100799.16;7401754;19;1744;-43
2023/03/21 00:56:10;;;;;;;;;;;;;;;16.66;71.34;100787.84;7401394;19;1952;-43
2023/03/21 00:58:41;;;;;;;;;;;;;;;16.68;71.92;100790.41;7402048;19;2104;-43
2023/03/21 01:01:10;;;;;;;;;;;;;;;16.64;71.67;100770.25;7402191;19;1886;-43
2023/03/21 01:03:41;;;;;;;;;;;;;;;16.64;71.12;100786.28;7403404;19;1708;-43
2023/03/21 01:06:12;;;;;;;;;;;;;;;16.61;70.91;100783.84;7401702;19;2243;-43
2023/03/21 01:08:41;;;;;;;;;;;;;;;16.58;71.02;100771.59;7402296;19;2008;-43
2023/03/21 01:11:10;;;;;;;;;;;;;;;16.60;71.03;100793.66;7402387;19;2353;-43
2023/03/21 01:13:41;;;;;;;;;;;;;;;16.59;71.39;100767.97;7401802;19;1764;-43
2023/03/21 01:16:10;;;;;;;;;;;;;;;16.58;72.01;100766.25;7401039;19;1820;-43
2023/03/21 01:18:39;;;;;;;;;;;;;;;16.59;71.27;100746.59;7400994;19;2345;-43
2023/03/21 01:21:08;;;;;;;;;;;;;;;16.59;71.70;100746.59;7401900;19;1883;-43
2023/03/21 01:23:37;;;;;;;;;;;;;;;16.59;71.21;100737.72;7399028;19;1793;-43
2023/03/21 01:26:05;;;;;;;;;;;;;;;16.60;71.63;100724.25;7402139;19;1798;-43
2023/03/21 01:28:34;;;;;;;;;;;;;;;16.59;71.78;100730.59;7402190;19;1046;-43
2023/03/21 01:31:06;;;;;;;;;;;;;;;16.56;70.96;100725.47;7401407;19;1867;-43
2023/03/21 01:33:34;;;;;;;;;;;;;;;16.55;71.58;100725.59;7402650;19;1841;-43
2023/03/21 01:36:03;;;;;;;;;;;;;;;16.53;71.44;100736.38;7402398;19;2142;-43
2023/03/21 01:38:31;;;;;;;;;;;;;;;16.55;71.46;100742.44;7400157;19;1858;-43
2023/03/21 01:41:01;;;;;;;;;;;;;;;16.53;70.90;100727.53;7401501;19;2025;-43
2023/03/21 01:43:31;;;;;;;;;;;;;;;16.50;70.20;100736.63;7400684;19;1871;-43
2023/03/21 01:46:22;;;;;;;;;;;;;;;16.48;70.62;100730.56;7401500;19;1838;-44
2023/03/21 01:48:53;;;;;;;;;;;;;;;16.50;71.13;100729.47;7400688;19;2114;-43
2023/03/21 01:51:21;;;;;;;;;;;;;;;16.50;71.27;100731.28;7399009;19;2078;-43
2023/03/21 01:53:50;;;;;;;;;;;;;;;16.52;71.47;100726.69;7401199;19;1759;-44
2023/03/21 01:56:21;;;;;;;;;;;;;;;16.52;71.48;100710.66;7401091;19;1781;-43
2023/03/21 01:58:50;;;;;;;;;;;;;;;16.51;71.56;100711.63;7400381;19;1869;-43
2023/03/21 02:01:22;;;;;;;;;;;;;;;16.52;71.37;100721.34;7398467;19;2148;-43
2023/03/21 02:03:54;;;;;;;;;;;;;;;16.49;71.36;100702.88;7400328;19;1324;-43
2023/03/21 02:06:29;;;;;;;;;;;;;;;16.48;71.21;100699.38;7399887;19;2188;-43
2023/03/21 02:08:59;;;;;;;;;;;;;;;16.49;71.02;100695.75;7400556;19;1570;-43
2023/03/21 02:11:28;;;;;;;;;;;;;;;16.46;71.67;100674.63;7401249;19;2042;-43
2023/03/21 02:13:56;;;;;;;;;;;;;;;16.45;70.78;100669.41;7400478;19;2050;-43
2023/03/21 02:16:31;;;;;;;;;;;;;;;16.47;71.15;100670.13;7400092;19;1830;-43
2023/03/21 02:19:04;;;;;;;;;;;;;;;16.50;71.49;100675.25;7398642;19;1861;-43
2023/03/21 02:21:49;;;;;;;;;;;;;;;16.48;71.54;100661.16;7398827;19;1823;-43
2023/03/21 02:24:24;;;;;;;;;;;;;;;16.47;71.73;100687.00;7399615;19;1803;-43
2023/03/21 02:27:05;;;;;;;;;;;;;;;16.47;72.01;100687.00;7398410;19;1773;-43
2023/03/21 02:29:48;;;;;;;;;;;;;;;16.48;71.52;100695.88;7399593;19;1668;-43
2023/03/21 02:32:27;;;;;;;;;;;;;;;16.49;71.83;100685.06;7399634;19;1830;-43
2023/03/21 02:35:15;;;;;;;;;;;;;;;16.50;71.50;100696.59;7400871;19;2052;-43
2023/03/21 02:37:48;;;;;;;;;;;;;;;16.50;71.21;100715.28;7398014;19;2068;-43
2023/03/21 02:40:22;;;;;;;;;;;;;;;16.46;71.42;100749.34;7399054;19;2103;-43
2023/03/21 02:42:56;;;;;;;;;;;;;;;16.45;71.12;100728.13;7399104;19;1737;-43
2023/03/21 02:45:27;;;;;;;;;;;;;;;16.43;71.07;100735.41;7400335;19;2041;-43
2023/03/21 02:47:58;;;;;;;;;;;;;;;16.42;71.39;100725.72;7399428;19;1836;-43
2023/03/21 02:50:29;;;;;;;;;;;;;;;16.76;71.25;100717.72;7400170;19;1739;-43
2023/03/21 02:53:01;;;;;;;;;;;;;;;17.78;68.05;100710.31;7399334;19;2009;-43
2023/03/21 02:55:31;;;;;;;;;;;;;;;18.47;66.01;100721.34;7400866;19;1608;-44
2023/03/21 02:58:00;;;;;;;;;;;;;;;19.16;64.21;100703.75;7400523;19;1682;-44
2023/03/21 03:00:31;;;;;;;;;;;;;;;19.58;63.28;100713.38;7397164;19;1854;-44
2023/03/21 03:02:59;;;;;;;;;;;;;;;19.44;63.34;100702.06;7398483;19;2040;-44
2023/03/21 03:05:28;;;;;;;;;;;;;;;19.28;64.36;100733.97;7399338;19;1981;-44
2023/03/21 03:08:19;;;;;;;;;;;;;;;19.33;63.86;100726.31;7398049;19;1945;-44
2023/03/21 03:10:52;;;;;;;;;;;;;;;19.51;63.49;100731.84;7398171;19;1848;-43
2023/03/21 03:13:25;;;;;;;;;;;;;;;19.59;63.33;100737.38;7397410;19;1768;-44
2023/03/21 03:16:00;;;;;;;;;;;;;;;19.58;63.41;100721.44;7401095;19;1932;-43
2023/03/21 03:18:36;;;;;;;;;;;;;;;19.60;63.37;100722.13;7404840;19;2350;-44
2023/03/21 03:21:07;;;;;;;;;;;;;;;19.62;63.54;100709.44;7401503;19;1830;-43
2023/03/21 03:23:42;;;;;;;;;;;;;;;19.65;63.04;100712.66;7406696;19;1652;-44
2023/03/21 03:26:13;;;;;;;;;;;;;;;19.77;62.96;100701.81;7406442;19;1628;-43
2023/03/21 03:28:44;;;;;;;;;;;;;;;19.83;62.73;100704.78;7405914;19;1405;-43
2023/03/21 03:31:13;;;;;;;;;;;;;;;19.84;62.92;100711.84;7404334;19;2167;-43
2023/03/21 03:33:43;;;;;;;;;;;;;;;19.89;62.63;100710.56;7404152;19;1706;-44
2023/03/21 03:36:13;;;;;;;;;;;;;;;19.94;62.49;100708.31;7404076;19;1775;-43
2023/03/21 03:38:45;;;;;;;;;;;;;;;19.94;62.47;100714.53;7404789;19;2023;-43
2023/03/21 03:41:17;;;;;;;;;;;;;;;20.02;62.50;100713.81;7402678;19;2145;-43
2023/03/21 03:43:49;;;;;;;;;;;;;;;20.01;62.48;100717.47;7405173;19;2056;-43
2023/03/21 03:46:20;;;;;;;;;;;;;;;20.02;62.38;100721.88;7404794;19;1800;-43
2023/03/21 03:48:50;;;;;;;;;;;;;;;20.05;62.27;100721.56;7404482;19;2040;-44
2023/03/21 03:51:22;;;;;;;;;;;;;;;20.09;62.15;100728.34;7403601;19;2087;-43
2023/03/21 03:53:57;;;;;;;;;;;;;;;20.04;62.43;100717.19;7404256;19;1861;-43
2023/03/21 03:56:28;;;;;;;;;;;;;;;20.21;61.75;100713.78;7404543;19;1872;-43
2023/03/21 03:58:57;;;;;;;;;;;;;;;20.22;61.95;100718.16;7404950;19;1993;-43
2023/03/21 04:01:26;;;;;;;;;;;;;;;19.81;63.17;100730.06;7402434;19;1944;-43
2023/03/21 04:03:54;;;;;;;;;;;;;;;19.01;65.36;100727.38;7404492;19;2017;-43
2023/03/21 04:06:23;;;;;;;;;;;;;;;18.56;66.60;100734.91;7403125;19;2134;-43
2023/03/21 04:08:55;;;;;;;;;;;;;;;18.30;67.01;100732.66;7404630;19;2028;-43
2023/03/21 04:11:23;;;;;;;;;;;;;;;18.13;67.66;100744.81;7404220;19;1878;-43
2023/03/21 04:13:51;;;;;;;;;;;;;;;18.21;67.92;100755.72;7404436;19;2083;-43
2023/03/21 04:16:20;;;;;;;;;;;;;;;18.59;66.36;100740.88;7403801;19;1721;-43
2023/03/21 04:18:48;;;;;;;;;;;;;;;19.28;64.73;100740.16;7405578;19;959;-43
2023/03/21 04:21:16;;;;;;;;;;;;;;;19.14;64.78;100745.03;7402816;19;1868;-43
2023/03/21 04:23:45;;;;;;;;;;;;;;;18.68;66.26;100752.59;7404598;19;2082;-43
2023/03/21 04:26:16;;;;;;;;;;;;;;;18.29;67.02;100755.06;7402536;19;1829;-43
2023/03/21 04:28:44;;;;;;;;;;;;;;;18.37;67.15;100751.75;7402455;19;1877;-43
2023/03/21 04:31:12;;;;;;;;;;;;;;;18.95;65.52;100738.66;7403671;19;1841;-43
2023/03/21 04:33:41;;;;;;;;;;;;;;;19.42;64.15;100762.22;7404033;19;1649;-43
2023/03/21 04:36:25;;;;;;;;;;;;;;;19.28;63.83;100758.09;7403012;19;1858;-43
2023/03/21 04:38:53;;;;;;;;;;;;;;;18.64;66.05;100767.25;7402239;19;1754;-43
2023/03/21 04:41:24;;;;;;;;;;;;;;;18.21;67.18;100753.03;7401962;19;2210;-43
2023/03/21 04:43:52;;;;;;;;;;;;;;;18.45;66.58;100762.63;7403852;19;1798;-43
2023/03/21 04:46:21;;;;;;;;;;;;;;;19.13;64.71;100760.28;7402703;19;1854;-43
2023/03/21 04:48:49;;;;;;;;;;;;;;;19.47;63.87;100781.41;7402656;19;2068;-43
2023/03/21 04:51:18;;;;;;;;;;;;;;;18.89;65.11;100771.34;7402305;19;1826;-43
2023/03/21 04:53:48;;;;;;;;;;;;;;;18.44;66.81;100760.94;7401586;19;1929;-43
2023/03/21 04:56:16;;;;;;;;;;;;;;;18.27;67.53;100755.19;7401017;19;1775;-43
2023/03/21 04:58:47;;;;;;;;;;;;;;;18.79;66.15;100759.72;7402397;19;2002;-43
2023/03/21 05:01:19;;;;;;;;;;;;;;;19.37;64.29;100753.72;7399741;19;1857;-43
2023/03/21 05:03:47;;;;;;;;;;;;;;;18.93;65.22;100756.69;7403247;19;1648;-43
2023/03/21 05:06:16;;;;;;;;;;;;;;;18.51;66.45;100754.06;7402008;19;2166;-44
2023/03/21 05:08:44;;;;;;;;;;;;;;;18.21;67.42;100752.22;7402533;19;2131;-44
2023/03/21 05:11:12;;;;;;;;;;;;;;;18.47;66.75;100745.44;7402492;19;2049;-43
2023/03/21 05:13:41;;;;;;;;;;;;;;;19.16;64.82;100743.06;7401538;19;2000;-44
2023/03/21 05:16:12;;;;;;;;;;;;;;;19.45;64.39;100762.75;7401515;19;2079;-43
2023/03/21 05:18:40;;;;;;;;;;;;;;;19.56;63.45;100743.03;7401591;19;2030;-43
2023/03/21 05:21:09;;;;;;;;;;;;;;;19.10;64.38;100741.81;7399527;19;1897;-43
2023/03/21 05:23:39;;;;;;;;;;;;;;;18.66;65.34;100742.03;7401522;19;1767;-44
2023/03/21 05:26:08;;;;;;;;;;;;;;;18.35;66.30;100756.38;7402447;19;2056;-43
2023/03/21 05:28:38;;;;;;;;;;;;;;;18.45;66.72;100759.97;7399024;19;1833;-43
2023/03/21 05:31:07;;;;;;;;;;;;;;;18.79;65.81;100760.59;7401993;19;1848;-43
2023/03/21 05:33:38;;;;;;;;;;;;;;;19.11;64.68;100739.97;7402149;19;1648;-43
2023/03/21 05:36:07;;;;;;;;;;;;;;;19.18;64.34;100741.09;7399078;19;1832;-43
2023/03/21 05:38:35;;;;;;;;;;;;;;;19.22;63.39;100755.97;7397190;19;1768;-43
2023/03/21 05:41:04;;;;;;;;;;;;;;;19.25;62.72;100766.38;7399616;19;1850;-43
2023/03/21 05:43:32;;;;;;;;;;;;;;;19.19;62.32;100749.00;7400515;19;1747;-43
2023/03/21 05:46:00;;;;;;;;;;;;;;;19.21;61.66;100740.84;7399501;19;1783;-43
2023/03/21 05:48:28;;;;;;;;;;;;;;;19.33;61.39;100736.22;7399961;19;1914;-43
2023/03/21 05:50:59;;;;;;;;;;;;;;;19.36;61.42;100736.78;7401862;19;1860;-43
2023/03/21 05:53:28;;;;;;;;;;;;;;;19.42;61.28;100741.59;7400610;19;1954;-43
2023/03/21 05:55:56;;;;;;;;;;;;;;;19.28;61.63;100737.47;7400368;19;1773;-43
2023/03/21 05:58:25;;;;;;;;;;;;;;;18.70;63.87;100747.94;7401110;19;1732;-43
2023/03/21 06:00:53;;;;;;;;;;;;;;;18.29;65.02;100747.03;7400124;19;2062;-43
2023/03/21 06:03:21;;;;;;;;;;;;;;;18.20;65.25;100745.97;7401304;19;1114;-43
2023/03/21 06:05:49;;;;;;;;;;;;;;;18.87;63.49;100746.53;7399168;19;1978;-43
2023/03/21 06:08:21;;;;;;;;;;;;;;;19.51;61.67;100739.91;7388138;19;2036;-43
2023/03/21 06:10:49;;;;;;;;;;;;;;;19.74;60.87;100735.16;7396921;19;1842;-44
2023/03/21 06:13:18;;;;;;;;;;;;;;;19.68;61.37;100757.16;7397624;19;2071;-43
2023/03/21 06:15:47;;;;;;;;;;;;;;;19.71;61.33;100751.53;7398502;19;1898;-43
2023/03/21 06:18:15;;;;;;;;;;;;;;;19.76;61.17;100743.91;7398956;19;1723;-43
2023/03/21 06:20:43;;;;;;;;;;;;;;;19.73;60.73;100762.13;7397455;19;1857;-43
2023/03/21 06:23:12;;;;;;;;;;;;;;;19.73;61.18;100752.22;7398332;19;2080;-44
2023/03/21 06:25:42;;;;;;;;;;;;;;;19.80;61.01;100766.78;7398598;19;1742;-43
2023/03/21 06:28:11;;;;;;;;;;;;;;;19.82;61.10;100764.81;7399891;19;1187;-43
2023/03/21 06:30:39;;;;;;;;;;;;;;;19.81;60.90;100755.06;7400081;19;1043;-43
2023/03/21 06:33:07;;;;;;;;;;;;;;;19.84;61.13;100773.56;7398635;19;1866;-43
2023/03/21 06:35:36;;;;;;;;;;;;;;;19.88;60.92;100781.34;7398991;19;1810;-43
2023/03/21 06:38:04;;;;;;;;;;;;;;;19.94;60.97;100756.63;7396410;19;1686;-43
2023/03/21 06:40:33;;;;;;;;;;;;;;;20.00;60.51;100766.78;7396727;19;2041;-43
2023/03/21 06:43:04;;;;;;;;;;;;;;;19.89;60.98;100774.97;7395857;19;1855;-44
2023/03/21 06:45:32;;;;;;;;;;;;;;;19.44;62.33;100785.22;7397199;19;2002;-43
2023/03/21 06:48:00;;;;;;;;;;;;;;;19.18;62.90;100775.94;7397551;19;1802;-43
2023/03/21 06:50:28;;;;;;;;;;;;;;;18.93;63.88;100782.66;7403560;19;2145;-43
2023/03/21 06:52:58;;;;;;;;;;;;;;;18.79;63.93;100775.78;7405606;19;1759;-43
2023/03/21 06:55:27;;;;;;;;;;;;;;;18.72;64.15;100779.97;7406672;19;996;-43
2023/03/21 06:57:56;;;;;;;;;;;;;;;18.67;64.24;100778.53;7405884;19;2139;-43
2023/03/21 07:00:27;;;;;;;;;;;;;;;18.64;64.67;100791.34;7404657;19;2178;-43
2023/03/21 07:02:55;;;;;;;;;;;;;;;18.61;64.89;100778.22;7399421;19;3306;-43
2023/03/21 07:05:24;;;;;;;;;;;;;;;18.62;64.88;100780.78;6884117;19;10001292;-43
2023/03/21 07:07:52;;;;;;;;;;;;;;;18.59;64.91;100775.69;7399597;19;2259;-43
2023/03/21 07:10:20;;;;;;;;;;;;;;;18.57;64.97;100772.28;7400082;19;1884;-42
2023/03/21 07:12:49;;;;;;;;;;;;;;;18.44;65.01;100767.16;7400010;19;1915;-43
2023/03/21 07:15:17;;;;;;;;;;;;;;;18.40;65.42;100764.84;7398576;19;1924;-43
2023/03/21 07:17:48;;;;;;;;;;;;;;;18.37;65.44;100765.97;7398915;19;1616;-43
2023/03/21 07:20:16;;;;;;;;;;;;;;;18.33;65.63;100772.56;7400310;19;1849;-43
2023/03/21 07:22:44;;;;;;;;;;;;;;;18.27;65.53;100765.91;7399871;19;1838;-43
2023/03/21 07:25:13;;;;;;;;;;;;;;;18.23;65.90;100758.28;7399088;19;2158;-43
2023/03/21 07:27:41;;;;;;;;;;;;;;;18.31;65.65;100761.16;7399639;19;1949;-43
2023/03/21 07:30:11;;;;;;;;;;;;;;;18.31;66.12;100760.31;7398484;19;1606;-43
2023/03/21 07:32:40;;;;;;;;;;;;;;;18.27;65.87;100752.53;7399159;19;2038;-43
2023/03/21 07:35:12;;;;;;;;;;;;;;;18.28;65.64;100750.69;7398780;19;1912;-43
2023/03/21 07:37:41;;;;;;;;;;;;;;;18.33;65.56;100758.34;7397750;19;2237;-43
2023/03/21 07:40:12;;;;;;;;;;;;;;;18.30;65.95;100748.72;7397731;19;1912;-43
2023/03/21 07:42:41;;;;;;;;;;;;;;;18.29;66.10;100747.88;7397264;19;1847;-43
2023/03/21 07:45:11;;;;;;;;;;;;;;;18.26;66.02;100755.31;7399285;19;2153;-44
2023/03/21 07:47:39;;;;;;;;;;;;;;;18.18;66.59;100749.78;7399801;19;2280;-43
2023/03/21 07:50:11;;;;;;;;;;;;;;;18.23;66.07;100755.59;7399306;19;2293;-43
2023/03/21 07:52:40;;;;;;;;;;;;;;;18.21;66.29;100753.03;7396953;19;2028;-43
2023/03/21 07:55:08;;;;;;;;;;;;;;;18.10;66.52;100747.75;7398214;19;2240;-43
2023/03/21 07:57:37;;;;;;;;;;;;;;;18.04;66.72;100759.81;7398198;19;1714;-43
2023/03/21 08:00:06;;;;;;;;;;;;;;;18.07;66.96;100769.44;7399523;19;1491;-43
2023/03/21 08:02:34;;;;;;;;;;;;;;;18.07;66.59;100769.44;7395428;19;2045;-43
2023/03/21 08:05:02;;;;;;;;;;;;;;;18.10;67.11;100771.84;7396322;19;3192;-43
2023/03/21 08:07:34;;;;;;;;;;;;;;;18.13;66.80;100760.88;7398084;19;2002;-43
2023/03/21 08:10:02;;;;;;;;;;;;;;;18.18;66.97;100755.97;7397019;19;1740;-43
2023/03/21 08:12:30;;;;;;;;;;;;;;;18.20;66.98;100774.59;7398208;19;1922;-44
2023/03/21 08:14:58;;;;;;;;;;;;;;;18.12;66.90;100777.91;7395745;19;2855;-43
2023/03/21 08:17:27;;;;;;;;;;;;;;;18.18;66.69;100766.69;7397064;19;2387;-44
2023/03/21 08:19:55;;;;;;;;;;;;;;;18.19;66.83;100772.91;7397518;19;2039;-43
2023/03/21 08:22:24;;;;;;;;;;;;;;;18.16;66.84;100779.34;7393491;19;1886;-44
2023/03/21 08:24:55;;;;;;;;;;;;;;;18.13;67.07;100760.88;7397958;19;2006;-44
2023/03/21 08:27:23;;;;;;;;;;;;;;;18.03;67.12;100770.66;7397627;19;1855;-44
2023/03/21 08:29:51;;;;;;;;;;;;;;;18.01;67.20;100768.13;7397486;19;1749;-43
2023/03/21 08:32:24;;;;;;;;;;;;;;;18.03;67.15;100766.16;7397705;19;1918;-43
2023/03/21 08:34:53;;;;;;;;;;;;;;;17.96;67.65;100764.13;7397270;19;2162;-43
2023/03/21 08:37:21;;;;;;;;;;;;;;;17.92;67.28;100765.38;7397254;19;1883;-43
2023/03/21 08:39:49;;;;;;;;;;;;;;;17.97;67.41;100758.66;7398816;19;1747;-43
2023/03/21 08:42:20;;;;;;;;;;;;;;;18.01;67.16;100764.59;7395753;19;2402;-44
2023/03/21 08:44:49;;;;;;;;;;;;;;;17.99;67.16;100761.22;7397754;19;2360;-43
2023/03/21 08:47:17;;;;;;;;;;;;;;;18.00;66.94;100765.56;7398044;19;2066;-44
2023/03/21 08:49:47;;;;;;;;;;;;;;;17.99;67.49;100769.22;7397362;19;2154;-43
2023/03/21 08:52:15;;;;;;;;;;;;;;;17.94;67.21;100752.69;7397725;19;1939;-44
2023/03/21 08:54:44;;;;;;;;;;;;;;;17.99;67.02;100766.56;7397700;19;2040;-43
2023/03/21 08:57:12;;;;;;;;;;;;;;;17.90;67.17;100757.47;7397080;19;2211;-44
2023/03/21 08:59:43;;;;;;;;;;;;;;;17.88;67.56;100752.22;7397530;19;1980;-43
2023/03/21 09:02:11;;;;;;;;;;;;;;;17.91;67.59;100752.97;7396248;19;1968;-44
2023/03/21 09:04:40;;;;;;;;;;;;;;;17.88;67.65;100748.72;7396245;19;3041;-44
2023/03/21 09:07:10;;;;;;;;;;;;;;;17.91;67.39;100732.41;7397787;19;1674;-43
2023/03/21 09:09:38;;;;;;;;;;;;;;;18.02;66.97;100742.19;7397447;19;2112;-43
2023/03/21 09:12:07;;;;;;;;;;;;;;;18.00;67.04;100741.47;6884030;19;10000093;-43
2023/03/21 09:14:36;;;;;;;;;;;;;;;17.99;67.43;100724.59;7396740;19;1749;-43
2023/03/21 09:17:07;;;;;;;;;;;;;;;17.98;67.16;100732.72;7395249;19;1903;-43
2023/03/21 09:19:37;;;;;;;;;;;;;;;18.01;67.12;100732.50;7396631;19;1759;-43
2023/03/21 09:22:09;;;;;;;;;;;;;;;18.00;67.19;100739.66;7394054;19;1931;-43
2023/03/21 09:24:38;;;;;;;;;;;;;;;18.01;67.15;100735.16;7396539;19;1720;-44
2023/03/21 09:27:06;;;;;;;;;;;;;;;17.98;67.01;100738.09;7395180;19;1845;-43
2023/03/21 09:29:35;;;;;;;;;;;;;;;17.96;67.10;100729.34;7395723;19;1790;-43
2023/03/21 09:32:05;;;;;;;;;;;;;;;17.96;67.08;100718.63;7394876;19;1846;-44
2023/03/21 09:34:39;;;;;;;;;;;;;;;17.96;67.20;100727.50;7396036;19;1804;-44
2023/03/21 09:37:08;;;;;;;;;;;;;;;17.94;67.39;100734.81;7396281;19;2258;-43
2023/03/21 09:39:38;;;;;;;;;;;;;;;17.85;67.90;100717.72;7394476;19;2196;-44
2023/03/21 09:42:13;;;;;;;;;;;;;;;17.83;68.28;100717.00;7393245;19;2282;-43
2023/03/21 09:44:51;;;;;;;;;;;;;;;17.79;67.96;100739.59;7395883;19;2132;-43
2023/03/21 09:47:23;;;;;;;;;;;;;;;17.76;68.04;100745.19;7395784;19;2130;-44
2023/03/21 09:49:58;;;;;;;;;;;;;;;17.77;67.82;100748.75;7396313;19;1893;-43
2023/03/21 09:52:29;;;;;;;;;;;;;;;17.70;68.57;100729.66;7394841;19;1816;-43
2023/03/21 09:54:58;;;;;;;;;;;;;;;17.70;68.32;100748.38;7395834;19;2108;-44
2023/03/21 09:57:31;;;;;;;;;;;;;;;17.62;68.50;100737.47;7395470;19;1911;-43
2023/03/21 10:00:07;;;;;;;;;;;;;;;17.61;68.57;100747.34;7394768;19;1706;-44
2023/03/21 10:02:38;;;;;;;;;;;;;;;17.60;68.39;100750.13;7393361;19;2204;-44
2023/03/21 10:05:15;;;;;;;;;;;;;;;17.59;68.59;100748.44;7392960;19;3735;-44
2023/03/21 10:07:47;;;;;;;;;;;;;;;17.61;68.34;100751.84;7394791;19;1795;-43
2023/03/21 10:10:20;;;;;;;;;;;;;;;17.56;68.71;100756.72;7395297;19;1675;-44
2023/03/21 10:12:50;;;;;;;;;;;;;;;17.56;68.75;100754.03;7395419;19;1880;-43
2023/03/21 10:15:20;;;;;;;;;;;;;;;17.57;68.25;100750.41;7395074;19;1687;-44
2023/03/21 10:17:51;;;;;;;;;;;;;;;17.53;68.80;100752.47;7395910;19;1852;-43
2023/03/21 10:20:23;;;;;;;;;;;;;;;17.52;68.81;100758.78;7395429;19;1924;-43
2023/03/21 10:22:53;;;;;;;;;;;;;;;17.49;68.86;100749.19;7394164;19;1937;-43
2023/03/21 10:25:23;;;;;;;;;;;;;;;17.49;68.37;100741.19;7400116;19;1844;-43
2023/03/21 10:27:52;;;;;;;;;;;;;;;17.44;68.64;100731.84;7402279;19;2107;-43
2023/03/21 10:30:26;;;;;;;;;;;;;;;17.43;68.80;100727.47;7402106;19;2250;-43
2023/03/21 10:32:54;;;;;;;;;;;;;;;17.42;68.98;100729.28;7401735;19;2051;-43
2023/03/21 10:35:26;;;;;;;;;;;;;;;17.41;69.07;100722.25;7402646;19;1823;-43
2023/03/21 10:37:54;;;;;;;;;;;;;;;17.39;68.52;100721.53;7399359;19;2160;-43
2023/03/21 10:40:23;;;;;;;;;;;;;;;17.40;68.79;100733.06;7401699;19;2027;-44
2023/03/21 10:42:51;;;;;;;;;;;;;;;17.38;69.04;100725.16;7401031;19;1865;-43
2023/03/21 10:45:20;;;;;;;;;;;;;;;17.37;68.55;100720.81;7402700;19;2034;-44
2023/03/21 10:47:50;;;;;;;;;;;;;;;17.36;68.91;100715.56;7402348;19;2203;-44
2023/03/21 10:50:24;;;;;;;;;;;;;;;17.34;69.13;100722.88;7401909;19;1907;-44
2023/03/21 10:52:59;;;;;;;;;;;;;;;17.34;68.80;100717.53;7400496;19;1789;-43
2023/03/21 10:55:30;;;;;;;;;;;;;;;17.32;69.31;100720.31;7401193;19;2059;-44
2023/03/21 10:58:01;;;;;;;;;;;;;;;17.30;69.01;100711.56;7402707;19;1841;-44
2023/03/21 11:00:31;;;;;;;;;;;;;;;17.27;69.15;100701.16;7402044;19;2120;-43
2023/03/21 11:02:59;;;;;;;;;;;;;;;17.25;69.16;100703.94;7399771;19;1912;-43
2023/03/21 11:05:29;;;;;;;;;;;;;;;17.25;69.16;100708.44;7398757;19;3562;-44
2023/03/21 11:08:02;;;;;;;;;;;;;;;17.22;68.93;100708.69;7401036;19;2150;-43
2023/03/21 11:10:31;;;;;;;;;;;;;;;17.23;69.28;100710.38;7400356;19;2776;-44
2023/03/21 11:13:02;;;;;;;;;;;;;;;17.25;69.15;100703.09;7401648;19;2171;-43
2023/03/21 11:15:33;;;;;;;;;;;;;;;17.21;69.36;100696.28;7400927;19;1622;-44
2023/03/21 11:18:02;;;;;;;;;;;;;;;17.21;69.28;100706.97;7400230;19;2197;-44
2023/03/21 11:20:32;;;;;;;;;;;;;;;17.17;69.59;100710.88;7400457;19;1831;-43
2023/03/21 11:23:04;;;;;;;;;;;;;;;17.16;69.31;100706.53;7398762;19;2052;-43
2023/03/21 11:25:36;;;;;;;;;;;;;;;17.16;69.01;100695.84;7400745;19;2153;-43
2023/03/21 11:28:08;;;;;;;;;;;;;;;17.17;69.15;100698.38;7399759;19;2046;-44
2023/03/21 11:30:36;;;;;;;;;;;;;;;17.15;69.23;100686.97;7400377;19;2019;-43
2023/03/21 11:33:06;;;;;;;;;;;;;;;17.15;69.32;100688.78;7400320;19;1972;-43
2023/03/21 11:35:35;;;;;;;;;;;;;;;17.14;69.27;100687.09;7398178;19;1866;-44
2023/03/21 11:38:06;;;;;;;;;;;;;;;17.16;69.25;100693.16;7396489;19;1963;-43
2023/03/21 11:40:35;;;;;;;;;;;;;;;17.15;69.11;100686.97;7398912;19;1686;-44
2023/03/21 11:43:05;;;;;;;;;;;;;;;17.14;69.05;100679.91;7398821;19;2204;-44
2023/03/21 11:45:34;;;;;;;;;;;;;;;17.11;69.39;100674.84;7402006;19;1472;-44
2023/03/21 11:48:04;;;;;;;;;;;;;;;17.12;69.36;100678.34;7403818;19;2049;-44
2023/03/21 11:50:34;;;;;;;;;;;;;;;17.12;69.16;100657.81;7401629;19;1483;-43
2023/03/21 11:53:21;;;;;;;;;;;;;;;17.07;69.18;100663.56;7404767;19;2128;-44
2023/03/21 11:56:00;;;;;;;;;;;;;;;17.05;69.41;100668.16;7404529;19;1487;-44
2023/03/21 11:58:35;;;;;;;;;;;;;;;17.04;69.77;100645.09;7404822;19;1924;-44
2023/03/21 12:01:08;;;;;;;;;;;;;;;17.04;69.35;100665.63;7401891;19;2311;-43
2023/03/21 12:04:00;;;;;;;;;;;;;;;17.02;69.39;100659.56;7403423;19;1848;-44
2023/03/21 12:06:32;;;;;;;;;;;;;;;17.02;69.45;100644.34;7404186;19;2191;-43
2023/03/21 12:09:11;;;;;;;;;;;;;;;16.99;69.37;100666.00;7404365;19;2097;-44
2023/03/21 12:11:43;;;;;;;;;;;;;;;16.99;69.40;100644.63;7404891;19;2009;-43
2023/03/21 12:14:17;;;;;;;;;;;;;;;16.99;69.32;100647.31;7404964;19;2409;-43
2023/03/21 12:16:51;;;;;;;;;;;;;;;16.99;69.76;100647.31;7403803;19;2117;-44
2023/03/21 12:19:34;;;;;;;;;;;;;;;16.99;69.43;100658.00;7403719;19;2052;-44
2023/03/21 12:22:07;;;;;;;;;;;;;;;16.97;69.52;100651.91;7401978;19;1846;-43
2023/03/21 12:24:41;;;;;;;;;;;;;;;16.97;69.43;100633.22;7402326;19;1973;-44
2023/03/21 12:27:13;;;;;;;;;;;;;;;17.01;69.31;100633.78;7402274;19;1886;-44
2023/03/21 12:29:45;;;;;;;;;;;;;;;16.96;69.56;100628.84;7404927;19;1038;-43
2023/03/21 12:32:22;;;;;;;;;;;;;;;16.97;69.56;100606.50;7403197;19;1909;-43
2023/03/21 12:35:07;;;;;;;;;;;;;;;16.97;69.52;100600.28;7404210;19;2118;-44
2023/03/21 12:37:38;;;;;;;;;;;;;;;17.01;69.39;100589.25;7403868;19;2005;-44
2023/03/21 12:40:15;;;;;;;;;;;;;;;17.01;69.54;100593.72;7404330;19;1703;-43
2023/03/21 12:43:01;;;;;;;;;;;;;;;17.03;69.24;100603.34;7402826;19;2072;-44
2023/03/21 12:45:32;;;;;;;;;;;;;;;16.98;69.20;100581.47;7404897;19;1492;-44
2023/03/21 12:48:04;;;;;;;;;;;;;;;17.00;69.72;100592.03;7402952;19;1873;-44
2023/03/21 12:50:36;;;;;;;;;;;;;;;17.07;69.30;100612.78;7403616;19;1897;-44
2023/03/21 12:53:20;;;;;;;;;;;;;;;17.04;68.95;100604.16;7402963;19;2219;-44
2023/03/21 12:55:51;;;;;;;;;;;;;;;17.10;69.16;100582.28;7400168;19;1883;-43
2023/03/21 12:58:23;;;;;;;;;;;;;;;17.10;68.98;100593.81;7401893;19;1913;-44
2023/03/21 13:00:52;;;;;;;;;;;;;;;17.12;69.27;100590.19;7402918;19;1860;-44
2023/03/21 13:03:23;;;;;;;;;;;;;;;17.06;69.30;100587.03;7402412;19;1983;-43